sensor_id;sensor_type;location;lat;lon;timestamp;pressure;altitude;pressure_sealevel;temperature;humidity
52983;BME280;48698;45.736;13.926;2022-09-21T00:01:32;97842.25;;;11.72;100.00
52983;BME280;48698;45.736;13.926;2022-09-21T00:06:36;97810.53;;;11.68;100.00
52983;BME280;48698;45.736;13.926;2022-09-21T00:11:39;97854.41;;;11.93;100.00
52983;BME280;48698;45.736;13.926;2022-09-21T00:16:43;97944.31;;;12.38;100.00
52983;BME280;48698;45.736;13.926;2022-09-21T00:21:47;97908.66;;;12.57;100.00
52983;BME280;48698;45.736;13.926;2022-09-21T00:26:51;97894.41;;;12.42;100.00
52983;BME280;48698;45.736;13.926;2022-09-21T00:31:54;97748.50;;;11.50;100.00
52983;BME280;48698;45.736;13.926;2022-09-21T00:36:58;97842.97;;;12.09;100.00
52983;BME280;48698;45.736;13.926;2022-09-21T00:42:08;97844.88;;;12.22;100.00
52983;BME280;48698;45.736;13.926;2022-09-21T00:47:24;97746.44;;;11.89;100.00
52983;BME280;48698;45.736;13.926;2022-09-21T00:52:43;97839.06;;;12.47;100.00
52983;BME280;48698;45.736;13.926;2022-09-21T00:57:53;97874.88;;;12.57;100.00
52983;BME280;48698;45.736;13.926;2022-09-21T01:02:58;97922.97;;;12.71;100.00
52983;BME280;48698;45.736;13.926;2022-09-21T01:08:05;97839.72;;;11.86;100.00
52983;BME280;48698;45.736;13.926;2022-09-21T01:13:26;97896.41;;;12.21;100.00
52983;BME280;48698;45.736;13.926;2022-09-21T01:18:46;97981.13;;;12.30;100.00
52983;BME280;48698;45.736;13.926;2022-09-21T01:24:21;97995.69;;;12.23;100.00
52983;BME280;48698;45.736;13.926;2022-09-21T01:29:48;97995.19;;;11.82;100.00
52983;BME280;48698;45.736;13.926;2022-09-21T01:35:00;97948.75;;;10.99;100.00
52983;BME280;48698;45.736;13.926;2022-09-21T01:40:12;97945.75;;;11.07;100.00
52983;BME280;48698;45.736;13.926;2022-09-21T01:45:22;98015.69;;;11.26;100.00
52983;BME280;48698;45.736;13.926;2022-09-21T01:50:33;98006.22;;;11.02;100.00
52983;BME280;48698;45.736;13.926;2022-09-21T01:55:46;97920.94;;;10.31;100.00
52983;BME280;48698;45.736;13.926;2022-09-21T02:00:54;97971.69;;;10.44;100.00
52983;BME280;48698;45.736;13.926;2022-09-21T02:06:00;97906.47;;;10.00;100.00
52983;BME280;48698;45.736;13.926;2022-09-21T02:11:05;98010.31;;;10.51;100.00
52983;BME280;48698;45.736;13.926;2022-09-21T02:21:33;97979.69;;;10.04;100.00
52983;BME280;48698;45.736;13.926;2022-09-21T02:26:52;97993.81;;;10.04;100.00
52983;BME280;48698;45.736;13.926;2022-09-21T02:32:00;98023.78;;;9.86;100.00
52983;BME280;48698;45.736;13.926;2022-09-21T02:37:17;98027.69;;;9.98;100.00
52983;BME280;48698;45.736;13.926;2022-09-21T02:42:28;98039.72;;;10.06;100.00
52983;BME280;48698;45.736;13.926;2022-09-21T02:47:50;97968.66;;;9.52;100.00
52983;BME280;48698;45.736;13.926;2022-09-21T02:52:56;98000.78;;;9.23;100.00
52983;BME280;48698;45.736;13.926;2022-09-21T02:58:05;97958.28;;;8.59;100.00
52983;BME280;48698;45.736;13.926;2022-09-21T03:03:18;98056.44;;;9.45;100.00
52983;BME280;48698;45.736;13.926;2022-09-21T03:08:23;98043.34;;;9.18;100.00
52983;BME280;48698;45.736;13.926;2022-09-21T03:13:27;97909.09;;;8.06;100.00
52983;BME280;48698;45.736;13.926;2022-09-21T03:18:37;97861.31;;;7.87;100.00
52983;BME280;48698;45.736;13.926;2022-09-21T03:23:43;98065.63;;;8.68;100.00
52983;BME280;48698;45.736;13.926;2022-09-21T03:28:49;98050.31;;;8.76;100.00
52983;BME280;48698;45.736;13.926;2022-09-21T03:34:05;97918.41;;;7.93;100.00
52983;BME280;48698;45.736;13.926;2022-09-21T03:39:09;97988.84;;;8.45;100.00
52983;BME280;48698;45.736;13.926;2022-09-21T03:44:13;98080.34;;;9.21;100.00
52983;BME280;48698;45.736;13.926;2022-09-21T03:49:20;98069.47;;;9.06;100.00
52983;BME280;48698;45.736;13.926;2022-09-21T03:54:24;98075.13;;;8.97;100.00
52983;BME280;48698;45.736;13.926;2022-09-21T03:59:28;97866.66;;;7.86;100.00
52983;BME280;48698;45.736;13.926;2022-09-21T04:04:32;98008.69;;;8.56;100.00
52983;BME280;48698;45.736;13.926;2022-09-21T04:09:35;97908.41;;;8.92;100.00
52983;BME280;48698;45.736;13.926;2022-09-21T04:14:39;98041.75;;;9.79;100.00
52983;BME280;48698;45.736;13.926;2022-09-21T04:19:43;98086.88;;;10.00;100.00
52983;BME280;48698;45.736;13.926;2022-09-21T04:24:50;97888.84;;;8.74;100.00
52983;BME280;48698;45.736;13.926;2022-09-21T04:29:54;98084.56;;;10.14;100.00
52983;BME280;48698;45.736;13.926;2022-09-21T04:34:58;98005.56;;;9.99;100.00
52983;BME280;48698;45.736;13.926;2022-09-21T04:40:02;98029.97;;;10.07;100.00
52983;BME280;48698;45.736;13.926;2022-09-21T04:45:07;97938.63;;;9.52;100.00
52983;BME280;48698;45.736;13.926;2022-09-21T04:50:10;98092.59;;;10.53;100.00
52983;BME280;48698;45.736;13.926;2022-09-21T04:55:15;97968.63;;;10.14;100.00
52983;BME280;48698;45.736;13.926;2022-09-21T05:00:20;97964.75;;;9.81;100.00
52983;BME280;48698;45.736;13.926;2022-09-21T05:05:24;97984.03;;;9.01;100.00
52983;BME280;48698;45.736;13.926;2022-09-21T05:10:34;97916.97;;;8.32;100.00
52983;BME280;48698;45.736;13.926;2022-09-21T05:15:38;98033.88;;;9.13;100.00
52983;BME280;48698;45.736;13.926;2022-09-21T05:20:41;98026.84;;;9.77;100.00
52983;BME280;48698;45.736;13.926;2022-09-21T05:25:45;98078.31;;;10.35;100.00
52983;BME280;48698;45.736;13.926;2022-09-21T05:36:44;98085.44;;;10.94;100.00
52983;BME280;48698;45.736;13.926;2022-09-21T05:41:50;97994.09;;;10.57;100.00
52983;BME280;48698;45.736;13.926;2022-09-21T05:47:06;98115.84;;;11.44;100.00
52983;BME280;48698;45.736;13.926;2022-09-21T05:52:44;98024.31;;;10.94;100.00
52983;BME280;48698;45.736;13.926;2022-09-21T05:58:00;98117.22;;;11.53;100.00
52983;BME280;48698;45.736;13.926;2022-09-21T06:03:28;98120.88;;;11.50;100.00
52983;BME280;48698;45.736;13.926;2022-09-21T06:08:32;98070.56;;;11.08;100.00
52983;BME280;48698;45.736;13.926;2022-09-21T06:13:36;98074.09;;;11.27;100.00
52983;BME280;48698;45.736;13.926;2022-09-21T06:18:40;98124.13;;;11.38;100.00
52983;BME280;48698;45.736;13.926;2022-09-21T06:23:44;98126.19;;;11.50;100.00
52983;BME280;48698;45.736;13.926;2022-09-21T06:28:48;97932.78;;;10.24;100.00
52983;BME280;48698;45.736;13.926;2022-09-21T06:33:52;98117.94;;;11.19;100.00
52983;BME280;48698;45.736;13.926;2022-09-21T06:38:55;98085.66;;;11.08;100.00
52983;BME280;48698;45.736;13.926;2022-09-21T06:43:59;98061.69;;;11.09;100.00
52983;BME280;48698;45.736;13.926;2022-09-21T06:49:03;98121.31;;;11.41;100.00
52983;BME280;48698;45.736;13.926;2022-09-21T06:54:07;98093.84;;;11.40;100.00
52983;BME280;48698;45.736;13.926;2022-09-21T06:59:11;98116.81;;;11.43;100.00
52983;BME280;48698;45.736;13.926;2022-09-21T07:04:14;98086.78;;;11.58;100.00
52983;BME280;48698;45.736;13.926;2022-09-21T07:09:24;98119.44;;;11.80;100.00
52983;BME280;48698;45.736;13.926;2022-09-21T07:14:47;98085.41;;;11.68;100.00
52983;BME280;48698;45.736;13.926;2022-09-21T07:19:51;98136.88;;;12.05;100.00
52983;BME280;48698;45.736;13.926;2022-09-21T07:24:55;98177.72;;;12.39;100.00
52983;BME280;48698;45.736;13.926;2022-09-21T07:29:58;98060.91;;;11.80;100.00
52983;BME280;48698;45.736;13.926;2022-09-21T07:35:02;98166.09;;;12.42;100.00
52983;BME280;48698;45.736;13.926;2022-09-21T07:40:07;98110.28;;;12.22;100.00
52983;BME280;48698;45.736;13.926;2022-09-21T07:45:11;98169.88;;;12.72;100.00
52983;BME280;48698;45.736;13.926;2022-09-21T07:50:14;98119.63;;;12.65;100.00
52983;BME280;48698;45.736;13.926;2022-09-21T07:55:18;98147.25;;;12.96;100.00
52983;BME280;48698;45.736;13.926;2022-09-21T08:00:21;98111.34;;;12.86;100.00
52983;BME280;48698;45.736;13.926;2022-09-21T08:05:24;98166.19;;;13.42;100.00
52983;BME280;48698;45.736;13.926;2022-09-21T08:10:28;98179.31;;;13.78;100.00
52983;BME280;48698;45.736;13.926;2022-09-21T08:15:32;98019.78;;;12.87;100.00
52983;BME280;48698;45.736;13.926;2022-09-21T08:20:58;98210.97;;;14.62;100.00
52983;BME280;48698;45.736;13.926;2022-09-21T08:26:03;98128.03;;;14.18;100.00
52983;BME280;48698;45.736;13.926;2022-09-21T08:31:09;98218.97;;;14.78;100.00
52983;BME280;48698;45.736;13.926;2022-09-21T08:36:13;98201.88;;;15.10;100.00
52983;BME280;48698;45.736;13.926;2022-09-21T08:41:21;98227.25;;;15.47;100.00
52983;BME280;48698;45.736;13.926;2022-09-21T08:46:28;98225.75;;;15.99;100.00
52983;BME280;48698;45.736;13.926;2022-09-21T08:51:36;98219.19;;;16.18;100.00
52983;BME280;48698;45.736;13.926;2022-09-21T08:56:41;98064.16;;;15.58;100.00
52983;BME280;48698;45.736;13.926;2022-09-21T09:13:26;98151.41;;;16.30;91.50
52983;BME280;48698;45.736;13.926;2022-09-21T09:23:51;98214.59;;;18.86;85.18
52983;BME280;48698;45.736;13.926;2022-09-21T09:39:31;98132.19;;;17.65;67.08
52983;BME280;48698;45.736;13.926;2022-09-21T09:55:18;98194.78;;;18.64;48.70
52983;BME280;48698;45.736;13.926;2022-09-21T10:00:22;98137.06;;;19.02;53.18
52983;BME280;48698;45.736;13.926;2022-09-21T10:05:34;98193.44;;;19.74;49.62
52983;BME280;48698;45.736;13.926;2022-09-21T10:10:40;98154.47;;;18.98;50.55
52983;BME280;48698;45.736;13.926;2022-09-21T10:16:21;98190.97;;;19.14;49.10
52983;BME280;48698;45.736;13.926;2022-09-21T10:21:18;98191.78;;;19.49;49.19
52983;BME280;48698;45.736;13.926;2022-09-21T10:26:22;98118.78;;;19.96;47.05
52983;BME280;48698;45.736;13.926;2022-09-21T10:31:28;98192.81;;;20.03;44.37
52983;BME280;48698;45.736;13.926;2022-09-21T10:36:34;98182.22;;;21.08;41.72
52983;BME280;48698;45.736;13.926;2022-09-21T10:41:39;98042.25;;;19.66;43.23
52983;BME280;48698;45.736;13.926;2022-09-21T10:46:43;98140.38;;;19.96;42.12
52983;BME280;48698;45.736;13.926;2022-09-21T10:51:50;98166.81;;;19.69;41.92
52983;BME280;48698;45.736;13.926;2022-09-21T10:57:07;98158.44;;;20.50;43.24
52983;BME280;48698;45.736;13.926;2022-09-21T11:12:33;98122.03;;;19.68;44.88
52983;BME280;48698;45.736;13.926;2022-09-21T11:17:47;98152.88;;;19.86;45.58
52983;BME280;48698;45.736;13.926;2022-09-21T11:23:02;98175.31;;;19.19;44.88
52983;BME280;48698;45.736;13.926;2022-09-21T11:28:31;98174.56;;;19.05;47.33
52983;BME280;48698;45.736;13.926;2022-09-21T11:50:19;98171.44;;;18.64;50.14
52983;BME280;48698;45.736;13.926;2022-09-21T12:11:45;98134.56;;;18.30;54.28
52983;BME280;48698;45.736;13.926;2022-09-21T12:17:05;98133.72;;;18.53;54.91
52983;BME280;48698;45.736;13.926;2022-09-21T12:22:19;98128.63;;;18.61;57.85
52983;BME280;48698;45.736;13.926;2022-09-21T12:37:48;98125.63;;;18.77;56.31
52983;BME280;48698;45.736;13.926;2022-09-21T12:53:35;97969.34;;;17.51;58.24
52983;BME280;48698;45.736;13.926;2022-09-21T12:58:59;98157.25;;;18.97;53.69
52983;BME280;48698;45.736;13.926;2022-09-21T13:09:26;98145.47;;;18.52;51.79
52983;BME280;48698;45.736;13.926;2022-09-21T13:14:32;98089.13;;;17.90;51.08
52983;BME280;48698;45.736;13.926;2022-09-21T13:19:42;98059.94;;;17.86;53.38
52983;BME280;48698;45.736;13.926;2022-09-21T13:25:00;98119.03;;;17.86;62.16
52983;BME280;48698;45.736;13.926;2022-09-21T13:30:27;98143.41;;;17.95;84.42
52983;BME280;48698;45.736;13.926;2022-09-21T13:35:52;98138.47;;;18.26;69.32
52983;BME280;48698;45.736;13.926;2022-09-21T13:41:02;98128.38;;;18.17;68.49
52983;BME280;48698;45.736;13.926;2022-09-21T13:46:07;98041.50;;;17.69;58.55
52983;BME280;48698;45.736;13.926;2022-09-21T13:51:13;97968.69;;;17.61;66.09
52983;BME280;48698;45.736;13.926;2022-09-21T13:56:20;97938.22;;;17.49;70.84
52983;BME280;48698;45.736;13.926;2022-09-21T14:01:33;98114.47;;;18.46;64.13
52983;BME280;48698;45.736;13.926;2022-09-21T14:06:49;98109.88;;;18.25;60.28
52983;BME280;48698;45.736;13.926;2022-09-21T14:11:59;98018.22;;;17.93;60.23
52983;BME280;48698;45.736;13.926;2022-09-21T14:17:33;98006.75;;;17.78;61.57
52983;BME280;48698;45.736;13.926;2022-09-21T14:22:38;98081.44;;;18.10;62.33
52983;BME280;48698;45.736;13.926;2022-09-21T14:27:44;98111.03;;;17.97;63.26
52983;BME280;48698;45.736;13.926;2022-09-21T14:38:06;98064.44;;;17.85;68.37
52983;BME280;48698;45.736;13.926;2022-09-21T14:43:20;98105.44;;;17.76;76.88
52983;BME280;48698;45.736;13.926;2022-09-21T14:48:53;98056.75;;;17.68;76.65
52983;BME280;48698;45.736;13.926;2022-09-21T14:54:30;98102.88;;;17.98;76.74
52983;BME280;48698;45.736;13.926;2022-09-21T14:59:53;98003.06;;;17.19;72.63
52983;BME280;48698;45.736;13.926;2022-09-21T15:16:14;98096.69;;;17.85;73.02
52983;BME280;48698;45.736;13.926;2022-09-21T15:21:23;98096.81;;;17.71;85.46
52983;BME280;48698;45.736;13.926;2022-09-21T15:26:31;98000.41;;;17.07;83.21
52983;BME280;48698;45.736;13.926;2022-09-21T15:31:37;98012.66;;;17.60;72.25
52983;BME280;48698;45.736;13.926;2022-09-21T15:36:42;98090.97;;;18.61;68.48
52983;BME280;48698;45.736;13.926;2022-09-21T15:41:46;98088.25;;;18.85;66.48
52983;BME280;48698;45.736;13.926;2022-09-21T15:46:54;98083.00;;;18.59;70.42
52983;BME280;48698;45.736;13.926;2022-09-21T15:52:19;98026.59;;;17.52;81.68
52983;BME280;48698;45.736;13.926;2022-09-21T15:57:28;98094.81;;;17.49;84.72
52983;BME280;48698;45.736;13.926;2022-09-21T16:02:38;98105.56;;;17.49;98.76
52983;BME280;48698;45.736;13.926;2022-09-21T16:07:44;98090.53;;;17.22;100.00
52983;BME280;48698;45.736;13.926;2022-09-21T16:12:48;98070.91;;;16.96;100.00
52983;BME280;48698;45.736;13.926;2022-09-21T16:18:00;98094.69;;;17.51;99.13
52983;BME280;48698;45.736;13.926;2022-09-21T16:23:21;98010.72;;;16.62;100.00
52983;BME280;48698;45.736;13.926;2022-09-21T16:33:58;98084.84;;;16.63;100.00
52983;BME280;48698;45.736;13.926;2022-09-21T16:39:04;98041.91;;;15.43;100.00
52983;BME280;48698;45.736;13.926;2022-09-21T16:44:19;98004.59;;;14.85;100.00
52983;BME280;48698;45.736;13.926;2022-09-21T16:49:24;98092.28;;;15.23;100.00
52983;BME280;48698;45.736;13.926;2022-09-21T16:54:33;98051.66;;;14.60;100.00
52983;BME280;48698;45.736;13.926;2022-09-21T16:59:39;97969.38;;;14.21;100.00
52983;BME280;48698;45.736;13.926;2022-09-21T17:04:43;98106.41;;;14.53;100.00
52983;BME280;48698;45.736;13.926;2022-09-21T17:09:47;97974.00;;;13.73;100.00
52983;BME280;48698;45.736;13.926;2022-09-21T17:14:50;98070.94;;;14.05;100.00
52983;BME280;48698;45.736;13.926;2022-09-21T17:19:54;98095.31;;;13.99;100.00
52983;BME280;48698;45.736;13.926;2022-09-21T17:25:03;98045.00;;;13.62;100.00
52983;BME280;48698;45.736;13.926;2022-09-21T17:30:11;98059.59;;;13.70;100.00
52983;BME280;48698;45.736;13.926;2022-09-21T17:35:30;98098.66;;;14.03;100.00
52983;BME280;48698;45.736;13.926;2022-09-21T17:40:35;98131.94;;;13.81;100.00
52983;BME280;48698;45.736;13.926;2022-09-21T17:45:42;97973.75;;;13.17;100.00
52983;BME280;48698;45.736;13.926;2022-09-21T17:50:59;98112.91;;;13.72;100.00
52983;BME280;48698;45.736;13.926;2022-09-21T18:01:37;98156.44;;;13.41;100.00
52983;BME280;48698;45.736;13.926;2022-09-21T18:06:42;98104.28;;;11.82;100.00
52983;BME280;48698;45.736;13.926;2022-09-21T18:22:09;98184.78;;;12.40;100.00
52983;BME280;48698;45.736;13.926;2022-09-21T18:27:17;98097.47;;;11.39;100.00
52983;BME280;48698;45.736;13.926;2022-09-21T18:49:04;98211.88;;;11.38;100.00
52983;BME280;48698;45.736;13.926;2022-09-21T18:54:19;98227.94;;;11.16;100.00
52983;BME280;48698;45.736;13.926;2022-09-21T19:04:38;98182.16;;;10.69;100.00
52983;BME280;48698;45.736;13.926;2022-09-21T19:15:20;98235.59;;;10.83;100.00
52983;BME280;48698;45.736;13.926;2022-09-21T19:20:57;98199.53;;;10.14;100.00
52983;BME280;48698;45.736;13.926;2022-09-21T19:26:23;98229.34;;;10.43;100.00
52983;BME280;48698;45.736;13.926;2022-09-21T19:31:31;98250.91;;;10.12;100.00
52983;BME280;48698;45.736;13.926;2022-09-21T19:36:35;98209.53;;;9.63;100.00
52983;BME280;48698;45.736;13.926;2022-09-21T19:47:06;98255.84;;;9.99;100.00
52983;BME280;48698;45.736;13.926;2022-09-21T19:52:16;98041.91;;;8.88;100.00
52983;BME280;48698;45.736;13.926;2022-09-21T19:57:21;98223.25;;;9.51;100.00
52983;BME280;48698;45.736;13.926;2022-09-21T20:08:15;98251.97;;;9.38;100.00
52983;BME280;48698;45.736;13.926;2022-09-21T20:13:41;98143.84;;;8.52;100.00
52983;BME280;48698;45.736;13.926;2022-09-21T20:23:55;98221.53;;;9.25;100.00
52983;BME280;48698;45.736;13.926;2022-09-21T20:29:01;98139.47;;;9.00;100.00
52983;BME280;48698;45.736;13.926;2022-09-21T20:34:04;98163.88;;;9.31;100.00
52983;BME280;48698;45.736;13.926;2022-09-21T20:39:09;98197.63;;;9.73;100.00
52983;BME280;48698;45.736;13.926;2022-09-21T20:44:12;98181.91;;;10.12;100.00
52983;BME280;48698;45.736;13.926;2022-09-21T20:49:16;98258.94;;;10.10;100.00
52983;BME280;48698;45.736;13.926;2022-09-21T20:54:20;98132.88;;;9.33;100.00
52983;BME280;48698;45.736;13.926;2022-09-21T20:59:26;98267.03;;;10.30;100.00
52983;BME280;48698;45.736;13.926;2022-09-21T21:04:29;98122.28;;;8.62;100.00
52983;BME280;48698;45.736;13.926;2022-09-21T21:09:34;98261.44;;;9.45;100.00
52983;BME280;48698;45.736;13.926;2022-09-21T21:14:38;98215.94;;;10.46;100.00
52983;BME280;48698;45.736;13.926;2022-09-21T21:19:42;98265.34;;;10.05;100.00
52983;BME280;48698;45.736;13.926;2022-09-21T21:24:45;98196.88;;;9.69;100.00
52983;BME280;48698;45.736;13.926;2022-09-21T21:29:50;98199.25;;;9.07;100.00
52983;BME280;48698;45.736;13.926;2022-09-21T21:34:55;98246.69;;;9.61;100.00
52983;BME280;48698;45.736;13.926;2022-09-21T21:39:58;98199.31;;;9.29;100.00
52983;BME280;48698;45.736;13.926;2022-09-21T21:45:04;98252.59;;;9.69;100.00
52983;BME280;48698;45.736;13.926;2022-09-21T21:50:09;98257.25;;;10.31;100.00
52983;BME280;48698;45.736;13.926;2022-09-21T21:55:13;98217.44;;;9.64;100.00
52983;BME280;48698;45.736;13.926;2022-09-21T22:00:16;98225.03;;;9.50;100.00
52983;BME280;48698;45.736;13.926;2022-09-21T22:05:20;98124.97;;;8.86;100.00
52983;BME280;48698;45.736;13.926;2022-09-21T22:10:24;98206.47;;;9.27;100.00
52983;BME280;48698;45.736;13.926;2022-09-21T22:15:28;98192.63;;;9.19;100.00
52983;BME280;48698;45.736;13.926;2022-09-21T22:20:32;98184.00;;;9.14;100.00
52983;BME280;48698;45.736;13.926;2022-09-21T22:25:36;98266.78;;;9.20;100.00
52983;BME280;48698;45.736;13.926;2022-09-21T22:30:51;98102.31;;;8.29;100.00
52983;BME280;48698;45.736;13.926;2022-09-21T22:36:09;98206.28;;;8.83;100.00
52983;BME280;48698;45.736;13.926;2022-09-21T22:41:32;98203.13;;;8.20;100.00
52983;BME280;48698;45.736;13.926;2022-09-21T22:46:36;98256.22;;;8.69;100.00
52983;BME280;48698;45.736;13.926;2022-09-21T22:51:40;98040.38;;;7.57;100.00
52983;BME280;48698;45.736;13.926;2022-09-21T22:56:45;98236.56;;;8.50;100.00
52983;BME280;48698;45.736;13.926;2022-09-21T23:01:49;98143.94;;;7.98;100.00
52983;BME280;48698;45.736;13.926;2022-09-21T23:06:52;98093.78;;;7.68;100.00
52983;BME280;48698;45.736;13.926;2022-09-21T23:11:56;98193.91;;;8.33;100.00
52983;BME280;48698;45.736;13.926;2022-09-21T23:17:00;98206.31;;;8.57;100.00
52983;BME280;48698;45.736;13.926;2022-09-21T23:22:04;98137.66;;;8.28;100.00
52983;BME280;48698;45.736;13.926;2022-09-21T23:27:07;98199.59;;;8.73;100.00
52983;BME280;48698;45.736;13.926;2022-09-21T23:32:11;98191.88;;;8.41;100.00
52983;BME280;48698;45.736;13.926;2022-09-21T23:37:15;98055.88;;;8.19;100.00
52983;BME280;48698;45.736;13.926;2022-09-21T23:42:19;98176.00;;;9.83;100.00
52983;BME280;48698;45.736;13.926;2022-09-21T23:47:22;98189.34;;;10.04;100.00
52983;BME280;48698;45.736;13.926;2022-09-21T23:52:26;98052.31;;;8.69;100.00
52983;BME280;48698;45.736;13.926;2022-09-21T23:57:31;98121.53;;;8.83;100.00
